KGSP/GSP METAR and TAF weather

Enter ICAO airport designator
Station Type Date Time Source
KGSP METAR 2019/06/17 11:53 UTC NOAA

KGSP 171153Z 21006KT 10SM CLR 24/20 A3007 RMK AO2 SLP168 T02390200 10244 20222 51017


Station Type Date Time Source
KGSP Decoded METAR 2019/06/17 11:53 UTC NOAA

GREER GREENVILLE SPARTBURG, SC, United States (KGSP) 34-53N 82-13W 286M
Jun 17, 2019 - 07:53 AM EDT / 2019.06.17 1153 UTC
Wind: from the SSW (210 degrees) at 7 MPH (6 KT):0
Visibility: 10 mile(s):0
Sky conditions: clear
Temperature: 75.0 F (23.9 C)
Dew Point: 68.0 F (20.0 C)
Relative Humidity: 78%
Pressure (altimeter): 30.07 in. Hg (1018 hPa)
Pressure tendency: 0.05 inches (1.7 hPa) higher than three hours ago
ob: KGSP 171153Z 21006KT 10SM CLR 24/20 A3007 RMK AO2 SLP168 T02390200 10244 20222 51017
cycle: 12

Station Type Date Time Source
KGSP TAF 2019/06/17 12:33 UTC NOAA

TAF KGSP 171130Z 1712/1812 21006KT P6SM FEW250
FM171500 23006KT P6SM FEW040
FM171700 23008G16KT P6SM VCSH FEW050
FM172200 22007KT P6SM SCT050 PROB30 1722/1801 4SM TSRA BKN050CB
FM180200 VRB02KT P6SM SCT100

Example: see airport list